sensor_id;sensor_type;location;lat;lon;timestamp;temperature;humidity
3944;DHT22;1986;52.546;13.428;2024-02-14T00:00:51;4.00;99.90
3944;DHT22;1986;52.546;13.428;2024-02-14T00:03:19;4.00;99.90
3944;DHT22;1986;52.546;13.428;2024-02-14T00:05:48;4.00;99.90
3944;DHT22;1986;52.546;13.428;2024-02-14T00:08:15;4.10;99.90
3944;DHT22;1986;52.546;13.428;2024-02-14T00:10:43;4.20;99.90
3944;DHT22;1986;52.546;13.428;2024-02-14T00:13:10;4.20;99.90
3944;DHT22;1986;52.546;13.428;2024-02-14T00:15:38;4.10;99.90
3944;DHT22;1986;52.546;13.428;2024-02-14T00:18:06;4.00;99.90
3944;DHT22;1986;52.546;13.428;2024-02-14T00:20:36;3.90;99.90
3944;DHT22;1986;52.546;13.428;2024-02-14T00:23:04;3.80;99.90
3944;DHT22;1986;52.546;13.428;2024-02-14T00:25:33;3.70;99.90
3944;DHT22;1986;52.546;13.428;2024-02-14T00:28:03;3.70;99.90
3944;DHT22;1986;52.546;13.428;2024-02-14T00:30:32;3.70;99.90
3944;DHT22;1986;52.546;13.428;2024-02-14T00:33:09;3.60;99.90
3944;DHT22;1986;52.546;13.428;2024-02-14T00:35:36;3.60;99.90
3944;DHT22;1986;52.546;13.428;2024-02-14T00:38:06;3.60;99.90
3944;DHT22;1986;52.546;13.428;2024-02-14T00:40:35;3.60;99.90
3944;DHT22;1986;52.546;13.428;2024-02-14T00:43:10;3.60;99.90
3944;DHT22;1986;52.546;13.428;2024-02-14T00:45:40;3.50;99.90
3944;DHT22;1986;52.546;13.428;2024-02-14T00:48:10;3.50;99.90
3944;DHT22;1986;52.546;13.428;2024-02-14T00:50:39;3.50;99.90
3944;DHT22;1986;52.546;13.428;2024-02-14T00:53:06;3.50;99.90
3944;DHT22;1986;52.546;13.428;2024-02-14T00:55:36;3.50;99.90
3944;DHT22;1986;52.546;13.428;2024-02-14T00:58:03;3.60;99.90
3944;DHT22;1986;52.546;13.428;2024-02-14T01:00:32;3.60;99.90
3944;DHT22;1986;52.546;13.428;2024-02-14T01:03:02;3.70;99.90
3944;DHT22;1986;52.546;13.428;2024-02-14T01:05:30;3.70;99.90
3944;DHT22;1986;52.546;13.428;2024-02-14T01:07:57;3.70;99.90
3944;DHT22;1986;52.546;13.428;2024-02-14T01:10:24;3.70;99.90
3944;DHT22;1986;52.546;13.428;2024-02-14T01:12:51;3.70;99.90
3944;DHT22;1986;52.546;13.428;2024-02-14T01:15:19;3.70;99.90
3944;DHT22;1986;52.546;13.428;2024-02-14T01:17:47;3.70;99.90
3944;DHT22;1986;52.546;13.428;2024-02-14T01:20:21;3.60;99.90
3944;DHT22;1986;52.546;13.428;2024-02-14T01:22:54;3.70;99.90
3944;DHT22;1986;52.546;13.428;2024-02-14T01:25:20;3.70;99.90
3944;DHT22;1986;52.546;13.428;2024-02-14T01:27:48;3.70;99.90
3944;DHT22;1986;52.546;13.428;2024-02-14T01:30:18;3.70;99.90
3944;DHT22;1986;52.546;13.428;2024-02-14T01:32:46;3.70;99.90
3944;DHT22;1986;52.546;13.428;2024-02-14T01:35:13;3.70;99.90
3944;DHT22;1986;52.546;13.428;2024-02-14T01:37:44;3.70;99.90
3944;DHT22;1986;52.546;13.428;2024-02-14T01:40:23;3.70;99.90
3944;DHT22;1986;52.546;13.428;2024-02-14T01:42:53;3.70;99.90
3944;DHT22;1986;52.546;13.428;2024-02-14T01:45:23;3.70;99.90
3944;DHT22;1986;52.546;13.428;2024-02-14T01:47:53;3.70;99.90
3944;DHT22;1986;52.546;13.428;2024-02-14T01:50:35;3.70;99.90
3944;DHT22;1986;52.546;13.428;2024-02-14T01:53:06;3.70;99.90
3944;DHT22;1986;52.546;13.428;2024-02-14T01:55:38;3.60;99.90
3944;DHT22;1986;52.546;13.428;2024-02-14T01:58:05;3.60;99.90
3944;DHT22;1986;52.546;13.428;2024-02-14T02:00:32;3.50;99.90
3944;DHT22;1986;52.546;13.428;2024-02-14T02:03:01;3.60;99.90
3944;DHT22;1986;52.546;13.428;2024-02-14T02:05:28;3.60;99.90
3944;DHT22;1986;52.546;13.428;2024-02-14T02:07:55;3.60;99.90
3944;DHT22;1986;52.546;13.428;2024-02-14T02:10:23;3.70;99.90
3944;DHT22;1986;52.546;13.428;2024-02-14T02:12:58;3.60;99.90
3944;DHT22;1986;52.546;13.428;2024-02-14T02:15:26;3.60;99.90
3944;DHT22;1986;52.546;13.428;2024-02-14T02:17:53;3.60;99.90
3944;DHT22;1986;52.546;13.428;2024-02-14T02:20:21;3.60;99.90
3944;DHT22;1986;52.546;13.428;2024-02-14T02:22:50;3.50;99.90
3944;DHT22;1986;52.546;13.428;2024-02-14T02:25:18;3.50;99.90
3944;DHT22;1986;52.546;13.428;2024-02-14T02:27:49;3.60;99.90
3944;DHT22;1986;52.546;13.428;2024-02-14T02:30:17;3.50;99.90
3944;DHT22;1986;52.546;13.428;2024-02-14T02:32:44;3.50;99.90
3944;DHT22;1986;52.546;13.428;2024-02-14T02:35:12;3.50;99.90
3944;DHT22;1986;52.546;13.428;2024-02-14T02:37:41;3.40;99.90
3944;DHT22;1986;52.546;13.428;2024-02-14T02:40:14;3.40;99.90
3944;DHT22;1986;52.546;13.428;2024-02-14T02:42:42;3.40;99.90
3944;DHT22;1986;52.546;13.428;2024-02-14T02:45:11;3.30;99.90
3944;DHT22;1986;52.546;13.428;2024-02-14T02:47:38;3.20;99.90
3944;DHT22;1986;52.546;13.428;2024-02-14T02:50:06;3.20;99.90
3944;DHT22;1986;52.546;13.428;2024-02-14T02:52:34;3.20;99.90
3944;DHT22;1986;52.546;13.428;2024-02-14T02:55:01;3.30;99.90
3944;DHT22;1986;52.546;13.428;2024-02-14T02:57:32;3.20;99.90
3944;DHT22;1986;52.546;13.428;2024-02-14T03:00:00;3.10;99.90
3944;DHT22;1986;52.546;13.428;2024-02-14T03:02:31;3.10;99.90
3944;DHT22;1986;52.546;13.428;2024-02-14T03:05:00;3.10;99.90
3944;DHT22;1986;52.546;13.428;2024-02-14T03:07:32;3.00;99.90
3944;DHT22;1986;52.546;13.428;2024-02-14T03:10:01;2.90;99.90
3944;DHT22;1986;52.546;13.428;2024-02-14T03:12:29;3.00;99.90
3944;DHT22;1986;52.546;13.428;2024-02-14T03:14:58;3.00;99.90
3944;DHT22;1986;52.546;13.428;2024-02-14T03:17:26;3.00;99.90
3944;DHT22;1986;52.546;13.428;2024-02-14T03:19:54;3.00;99.90
3944;DHT22;1986;52.546;13.428;2024-02-14T03:22:22;3.00;99.90
3944;DHT22;1986;52.546;13.428;2024-02-14T03:24:51;3.00;99.90
3944;DHT22;1986;52.546;13.428;2024-02-14T03:27:20;3.00;99.90
3944;DHT22;1986;52.546;13.428;2024-02-14T03:29:49;2.90;99.90
3944;DHT22;1986;52.546;13.428;2024-02-14T03:32:18;2.90;99.90
3944;DHT22;1986;52.546;13.428;2024-02-14T03:34:45;2.90;99.90
3944;DHT22;1986;52.546;13.428;2024-02-14T03:37:12;3.00;99.90
3944;DHT22;1986;52.546;13.428;2024-02-14T03:39:40;3.00;99.90
3944;DHT22;1986;52.546;13.428;2024-02-14T03:42:07;3.00;99.90
3944;DHT22;1986;52.546;13.428;2024-02-14T03:44:37;3.00;99.90
3944;DHT22;1986;52.546;13.428;2024-02-14T03:47:04;3.00;99.90
3944;DHT22;1986;52.546;13.428;2024-02-14T03:49:33;3.00;99.90
3944;DHT22;1986;52.546;13.428;2024-02-14T03:52:00;2.90;99.90
3944;DHT22;1986;52.546;13.428;2024-02-14T03:54:27;2.90;99.90
3944;DHT22;1986;52.546;13.428;2024-02-14T03:56:54;3.00;99.90
3944;DHT22;1986;52.546;13.428;2024-02-14T03:59:21;2.90;99.90
3944;DHT22;1986;52.546;13.428;2024-02-14T04:01:50;3.00;99.90
3944;DHT22;1986;52.546;13.428;2024-02-14T04:04:19;2.90;99.90
3944;DHT22;1986;52.546;13.428;2024-02-14T04:06:51;2.90;99.90
3944;DHT22;1986;52.546;13.428;2024-02-14T04:09:18;2.90;99.90
3944;DHT22;1986;52.546;13.428;2024-02-14T04:11:44;3.00;99.90
3944;DHT22;1986;52.546;13.428;2024-02-14T04:14:14;2.90;99.90
3944;DHT22;1986;52.546;13.428;2024-02-14T04:16:45;2.90;99.90
3944;DHT22;1986;52.546;13.428;2024-02-14T04:19:18;2.90;99.90
3944;DHT22;1986;52.546;13.428;2024-02-14T04:21:45;2.90;99.90
3944;DHT22;1986;52.546;13.428;2024-02-14T04:24:14;3.00;99.90
3944;DHT22;1986;52.546;13.428;2024-02-14T04:26:41;3.10;99.90
3944;DHT22;1986;52.546;13.428;2024-02-14T04:29:08;3.10;99.90
3944;DHT22;1986;52.546;13.428;2024-02-14T04:31:36;3.20;99.90
3944;DHT22;1986;52.546;13.428;2024-02-14T04:34:03;3.10;99.90
3944;DHT22;1986;52.546;13.428;2024-02-14T04:36:30;3.20;99.90
3944;DHT22;1986;52.546;13.428;2024-02-14T04:38:58;3.20;99.90
3944;DHT22;1986;52.546;13.428;2024-02-14T04:41:41;3.20;99.90
3944;DHT22;1986;52.546;13.428;2024-02-14T04:44:08;3.20;99.90
3944;DHT22;1986;52.546;13.428;2024-02-14T04:46:35;3.20;99.90
3944;DHT22;1986;52.546;13.428;2024-02-14T04:49:03;3.20;99.90
3944;DHT22;1986;52.546;13.428;2024-02-14T04:51:31;3.20;99.90
3944;DHT22;1986;52.546;13.428;2024-02-14T04:53:58;3.30;99.90
3944;DHT22;1986;52.546;13.428;2024-02-14T04:56:25;3.30;99.90
3944;DHT22;1986;52.546;13.428;2024-02-14T04:58:54;3.40;99.90
3944;DHT22;1986;52.546;13.428;2024-02-14T05:01:21;3.40;99.90
3944;DHT22;1986;52.546;13.428;2024-02-14T05:03:49;3.40;99.90
3944;DHT22;1986;52.546;13.428;2024-02-14T05:06:16;3.40;99.90
3944;DHT22;1986;52.546;13.428;2024-02-14T05:08:43;3.40;99.90
3944;DHT22;1986;52.546;13.428;2024-02-14T05:11:10;3.40;99.90
3944;DHT22;1986;52.546;13.428;2024-02-14T05:13:47;3.40;99.90
3944;DHT22;1986;52.546;13.428;2024-02-14T05:16:21;3.40;99.90
3944;DHT22;1986;52.546;13.428;2024-02-14T05:18:57;3.40;99.90
3944;DHT22;1986;52.546;13.428;2024-02-14T05:21:24;3.40;99.90
3944;DHT22;1986;52.546;13.428;2024-02-14T05:23:52;3.40;99.90
3944;DHT22;1986;52.546;13.428;2024-02-14T05:26:19;3.40;99.90
3944;DHT22;1986;52.546;13.428;2024-02-14T05:28:47;3.40;99.90
3944;DHT22;1986;52.546;13.428;2024-02-14T05:31:14;3.30;99.90
3944;DHT22;1986;52.546;13.428;2024-02-14T05:33:43;3.40;99.90
3944;DHT22;1986;52.546;13.428;2024-02-14T05:36:10;3.40;99.90
3944;DHT22;1986;52.546;13.428;2024-02-14T05:38:37;3.30;99.90
3944;DHT22;1986;52.546;13.428;2024-02-14T05:41:04;3.30;99.90
3944;DHT22;1986;52.546;13.428;2024-02-14T05:43:35;3.30;99.90
3944;DHT22;1986;52.546;13.428;2024-02-14T05:46:02;3.30;99.90
3944;DHT22;1986;52.546;13.428;2024-02-14T05:48:38;3.30;99.90
3944;DHT22;1986;52.546;13.428;2024-02-14T05:51:09;3.30;99.90
3944;DHT22;1986;52.546;13.428;2024-02-14T05:53:36;3.30;99.90
3944;DHT22;1986;52.546;13.428;2024-02-14T05:56:04;3.40;99.90
3944;DHT22;1986;52.546;13.428;2024-02-14T05:59:16;3.30;99.90
3944;DHT22;1986;52.546;13.428;2024-02-14T06:01:38;3.40;99.90
3944;DHT22;1986;52.546;13.428;2024-02-14T06:04:05;3.40;99.90
3944;DHT22;1986;52.546;13.428;2024-02-14T06:06:50;3.40;99.90
3944;DHT22;1986;52.546;13.428;2024-02-14T06:09:19;3.40;99.90
3944;DHT22;1986;52.546;13.428;2024-02-14T06:11:50;3.40;99.90
3944;DHT22;1986;52.546;13.428;2024-02-14T06:14:18;3.50;99.90
3944;DHT22;1986;52.546;13.428;2024-02-14T06:16:46;3.40;99.90
3944;DHT22;1986;52.546;13.428;2024-02-14T06:19:36;3.40;99.90
3944;DHT22;1986;52.546;13.428;2024-02-14T06:25:58;3.50;99.90
3944;DHT22;1986;52.546;13.428;2024-02-14T06:28:53;3.50;99.90
3944;DHT22;1986;52.546;13.428;2024-02-14T06:32:37;3.50;99.90
3944;DHT22;1986;52.546;13.428;2024-02-14T06:34:49;3.60;99.90
3944;DHT22;1986;52.546;13.428;2024-02-14T06:37:22;3.60;99.90
3944;DHT22;1986;52.546;13.428;2024-02-14T06:40:13;3.70;99.90
3944;DHT22;1986;52.546;13.428;2024-02-14T06:46:44;3.70;99.90
3944;DHT22;1986;52.546;13.428;2024-02-14T06:49:22;3.80;99.90
3944;DHT22;1986;52.546;13.428;2024-02-14T06:51:55;3.80;99.90
3944;DHT22;1986;52.546;13.428;2024-02-14T06:54:28;3.80;99.90
3944;DHT22;1986;52.546;13.428;2024-02-14T06:57:01;3.90;99.90
3944;DHT22;1986;52.546;13.428;2024-02-14T06:59:38;3.90;99.90
3944;DHT22;1986;52.546;13.428;2024-02-14T07:02:17;3.90;99.90
3944;DHT22;1986;52.546;13.428;2024-02-14T07:04:56;4.00;99.90
3944;DHT22;1986;52.546;13.428;2024-02-14T07:07:29;4.00;99.90
3944;DHT22;1986;52.546;13.428;2024-02-14T07:10:30;4.10;99.90
3944;DHT22;1986;52.546;13.428;2024-02-14T07:13:05;4.10;99.90
3944;DHT22;1986;52.546;13.428;2024-02-14T07:15:51;4.20;99.90
3944;DHT22;1986;52.546;13.428;2024-02-14T07:18:21;4.20;99.90
3944;DHT22;1986;52.546;13.428;2024-02-14T07:20:50;4.20;99.90
3944;DHT22;1986;52.546;13.428;2024-02-14T07:23:18;4.30;99.90
3944;DHT22;1986;52.546;13.428;2024-02-14T07:25:47;4.40;99.90
3944;DHT22;1986;52.546;13.428;2024-02-14T07:28:14;4.40;99.90
3944;DHT22;1986;52.546;13.428;2024-02-14T07:30:40;4.40;99.90
3944;DHT22;1986;52.546;13.428;2024-02-14T07:33:07;4.50;99.90
3944;DHT22;1986;52.546;13.428;2024-02-14T07:35:36;4.50;99.90
3944;DHT22;1986;52.546;13.428;2024-02-14T07:38:04;4.50;99.90
3944;DHT22;1986;52.546;13.428;2024-02-14T07:40:31;4.60;99.90
3944;DHT22;1986;52.546;13.428;2024-02-14T07:42:58;4.70;99.90
3944;DHT22;1986;52.546;13.428;2024-02-14T07:45:26;4.80;99.90
3944;DHT22;1986;52.546;13.428;2024-02-14T07:47:53;4.80;99.90
3944;DHT22;1986;52.546;13.428;2024-02-14T07:50:21;4.80;99.90
3944;DHT22;1986;52.546;13.428;2024-02-14T07:52:49;5.00;99.90
3944;DHT22;1986;52.546;13.428;2024-02-14T07:55:17;5.00;99.90
3944;DHT22;1986;52.546;13.428;2024-02-14T07:57:44;5.00;99.90
3944;DHT22;1986;52.546;13.428;2024-02-14T08:00:12;5.10;99.90
3944;DHT22;1986;52.546;13.428;2024-02-14T08:02:48;5.10;99.90
3944;DHT22;1986;52.546;13.428;2024-02-14T08:05:15;5.20;99.90
3944;DHT22;1986;52.546;13.428;2024-02-14T08:07:42;5.30;99.90
3944;DHT22;1986;52.546;13.428;2024-02-14T08:10:11;5.30;99.90
3944;DHT22;1986;52.546;13.428;2024-02-14T08:12:37;5.30;99.90
3944;DHT22;1986;52.546;13.428;2024-02-14T08:15:08;5.30;99.90
3944;DHT22;1986;52.546;13.428;2024-02-14T08:17:36;5.30;99.90
3944;DHT22;1986;52.546;13.428;2024-02-14T08:20:05;5.40;99.90
3944;DHT22;1986;52.546;13.428;2024-02-14T08:22:32;5.40;99.90
3944;DHT22;1986;52.546;13.428;2024-02-14T08:25:00;5.20;99.90
3944;DHT22;1986;52.546;13.428;2024-02-14T08:27:28;5.20;99.90
3944;DHT22;1986;52.546;13.428;2024-02-14T08:29:57;5.20;99.90
3944;DHT22;1986;52.546;13.428;2024-02-14T08:32:24;5.20;99.90
3944;DHT22;1986;52.546;13.428;2024-02-14T08:34:50;5.10;99.90
3944;DHT22;1986;52.546;13.428;2024-02-14T08:37:23;5.10;99.90
3944;DHT22;1986;52.546;13.428;2024-02-14T08:39:51;5.20;99.90
3944;DHT22;1986;52.546;13.428;2024-02-14T08:42:17;5.20;99.90
3944;DHT22;1986;52.546;13.428;2024-02-14T08:44:46;5.20;99.90
3944;DHT22;1986;52.546;13.428;2024-02-14T08:47:12;5.30;99.90
3944;DHT22;1986;52.546;13.428;2024-02-14T08:49:41;5.30;99.90
3944;DHT22;1986;52.546;13.428;2024-02-14T08:52:08;5.30;99.90
3944;DHT22;1986;52.546;13.428;2024-02-14T08:54:36;5.40;99.90
3944;DHT22;1986;52.546;13.428;2024-02-14T08:57:04;5.40;99.90
3944;DHT22;1986;52.546;13.428;2024-02-14T08:59:34;5.50;99.90
3944;DHT22;1986;52.546;13.428;2024-02-14T09:02:05;5.50;99.90
3944;DHT22;1986;52.546;13.428;2024-02-14T09:04:46;5.60;99.90
3944;DHT22;1986;52.546;13.428;2024-02-14T09:07:23;5.60;99.90
3944;DHT22;1986;52.546;13.428;2024-02-14T09:10:11;5.60;99.90
3944;DHT22;1986;52.546;13.428;2024-02-14T09:13:07;5.60;99.90
3944;DHT22;1986;52.546;13.428;2024-02-14T09:15:51;5.70;99.90
3944;DHT22;1986;52.546;13.428;2024-02-14T09:18:36;5.80;99.90
3944;DHT22;1986;52.546;13.428;2024-02-14T09:21:22;5.80;99.90
3944;DHT22;1986;52.546;13.428;2024-02-14T09:24:04;5.90;99.90
3944;DHT22;1986;52.546;13.428;2024-02-14T09:26:41;5.90;99.90
3944;DHT22;1986;52.546;13.428;2024-02-14T09:29:45;6.00;99.90
3944;DHT22;1986;52.546;13.428;2024-02-14T09:32:28;5.90;99.90
3944;DHT22;1986;52.546;13.428;2024-02-14T09:41:51;6.10;99.90
3944;DHT22;1986;52.546;13.428;2024-02-14T09:44:27;6.00;99.90
3944;DHT22;1986;52.546;13.428;2024-02-14T09:47:09;6.00;99.90
3944;DHT22;1986;52.546;13.428;2024-02-14T09:49:39;6.10;99.90
3944;DHT22;1986;52.546;13.428;2024-02-14T09:52:12;6.10;99.90
3944;DHT22;1986;52.546;13.428;2024-02-14T09:54:44;6.20;99.90
3944;DHT22;1986;52.546;13.428;2024-02-14T09:57:14;6.10;99.90
3944;DHT22;1986;52.546;13.428;2024-02-14T09:59:45;6.10;99.90
3944;DHT22;1986;52.546;13.428;2024-02-14T10:02:15;6.20;99.90
3944;DHT22;1986;52.546;13.428;2024-02-14T10:04:56;6.20;99.90
3944;DHT22;1986;52.546;13.428;2024-02-14T10:07:29;6.20;99.90
3944;DHT22;1986;52.546;13.428;2024-02-14T10:10:07;6.20;99.90
3944;DHT22;1986;52.546;13.428;2024-02-14T10:13:00;6.10;99.90
3944;DHT22;1986;52.546;13.428;2024-02-14T10:15:42;6.20;99.90
3944;DHT22;1986;52.546;13.428;2024-02-14T10:18:10;6.20;99.90
3944;DHT22;1986;52.546;13.428;2024-02-14T10:20:41;6.30;99.90
3944;DHT22;1986;52.546;13.428;2024-02-14T10:23:17;6.40;99.90
3944;DHT22;1986;52.546;13.428;2024-02-14T10:25:45;6.50;99.90
3944;DHT22;1986;52.546;13.428;2024-02-14T10:28:22;6.60;99.90
3944;DHT22;1986;52.546;13.428;2024-02-14T10:30:55;6.70;99.90
3944;DHT22;1986;52.546;13.428;2024-02-14T10:33:32;6.70;99.90
3944;DHT22;1986;52.546;13.428;2024-02-14T10:36:03;6.70;99.90
3944;DHT22;1986;52.546;13.428;2024-02-14T10:38:35;6.70;99.90
3944;DHT22;1986;52.546;13.428;2024-02-14T10:41:06;6.70;99.90
3944;DHT22;1986;52.546;13.428;2024-02-14T10:43:42;6.70;99.90
3944;DHT22;1986;52.546;13.428;2024-02-14T10:46:18;6.70;99.90
3944;DHT22;1986;52.546;13.428;2024-02-14T10:48:47;6.80;99.90
3944;DHT22;1986;52.546;13.428;2024-02-14T10:51:15;6.90;99.90
3944;DHT22;1986;52.546;13.428;2024-02-14T10:53:45;6.90;99.90
3944;DHT22;1986;52.546;13.428;2024-02-14T10:56:17;6.90;99.90
3944;DHT22;1986;52.546;13.428;2024-02-14T10:58:52;6.80;99.90
3944;DHT22;1986;52.546;13.428;2024-02-14T11:01:25;6.80;99.90
3944;DHT22;1986;52.546;13.428;2024-02-14T11:03:56;6.80;99.90
3944;DHT22;1986;52.546;13.428;2024-02-14T11:06:26;6.90;99.90
3944;DHT22;1986;52.546;13.428;2024-02-14T11:08:59;7.00;99.90
3944;DHT22;1986;52.546;13.428;2024-02-14T11:11:33;7.10;99.90
3944;DHT22;1986;52.546;13.428;2024-02-14T11:14:02;7.20;99.90
3944;DHT22;1986;52.546;13.428;2024-02-14T11:16:31;7.30;99.90
3944;DHT22;1986;52.546;13.428;2024-02-14T11:19:09;7.40;99.90
3944;DHT22;1986;52.546;13.428;2024-02-14T11:21:42;7.40;99.90
3944;DHT22;1986;52.546;13.428;2024-02-14T11:24:13;7.40;99.90
3944;DHT22;1986;52.546;13.428;2024-02-14T11:26:51;7.40;99.90
3944;DHT22;1986;52.546;13.428;2024-02-14T11:29:20;7.40;99.90
3944;DHT22;1986;52.546;13.428;2024-02-14T11:31:58;7.30;99.90
3944;DHT22;1986;52.546;13.428;2024-02-14T11:34:26;7.30;99.90
3944;DHT22;1986;52.546;13.428;2024-02-14T11:36:54;7.40;99.90
3944;DHT22;1986;52.546;13.428;2024-02-14T11:39:23;7.40;99.90
3944;DHT22;1986;52.546;13.428;2024-02-14T11:42:04;7.40;99.90
3944;DHT22;1986;52.546;13.428;2024-02-14T11:44:34;7.40;99.90
3944;DHT22;1986;52.546;13.428;2024-02-14T11:47:04;7.40;99.90
3944;DHT22;1986;52.546;13.428;2024-02-14T11:49:33;7.30;99.90
3944;DHT22;1986;52.546;13.428;2024-02-14T11:52:11;7.30;99.90
3944;DHT22;1986;52.546;13.428;2024-02-14T11:54:40;7.40;99.90
3944;DHT22;1986;52.546;13.428;2024-02-14T11:57:17;7.40;99.90
3944;DHT22;1986;52.546;13.428;2024-02-14T11:59:48;7.40;99.90
3944;DHT22;1986;52.546;13.428;2024-02-14T12:02:18;7.40;99.90
3944;DHT22;1986;52.546;13.428;2024-02-14T12:04:47;7.30;99.90
3944;DHT22;1986;52.546;13.428;2024-02-14T12:07:18;7.40;99.90
3944;DHT22;1986;52.546;13.428;2024-02-14T12:09:47;7.40;99.90
3944;DHT22;1986;52.546;13.428;2024-02-14T12:12:17;7.40;99.90
3944;DHT22;1986;52.546;13.428;2024-02-14T12:14:52;7.50;99.90
3944;DHT22;1986;52.546;13.428;2024-02-14T12:17:19;7.50;99.90
3944;DHT22;1986;52.546;13.428;2024-02-14T12:19:49;7.50;99.90
3944;DHT22;1986;52.546;13.428;2024-02-14T12:22:19;7.50;99.90
3944;DHT22;1986;52.546;13.428;2024-02-14T12:24:55;7.50;99.90
3944;DHT22;1986;52.546;13.428;2024-02-14T12:27:31;7.60;99.90
3944;DHT22;1986;52.546;13.428;2024-02-14T12:30:04;7.60;99.90
3944;DHT22;1986;52.546;13.428;2024-02-14T12:32:31;7.60;99.90
3944;DHT22;1986;52.546;13.428;2024-02-14T12:34:59;7.70;99.90
3944;DHT22;1986;52.546;13.428;2024-02-14T12:37:26;7.70;99.90
3944;DHT22;1986;52.546;13.428;2024-02-14T12:39:55;7.70;99.90
3944;DHT22;1986;52.546;13.428;2024-02-14T12:42:22;7.70;99.90
3944;DHT22;1986;52.546;13.428;2024-02-14T12:44:52;7.80;99.90
3944;DHT22;1986;52.546;13.428;2024-02-14T12:47:21;7.90;99.90
3944;DHT22;1986;52.546;13.428;2024-02-14T12:49:48;7.90;99.90
3944;DHT22;1986;52.546;13.428;2024-02-14T12:52:16;7.80;99.90
3944;DHT22;1986;52.546;13.428;2024-02-14T12:54:44;7.80;99.90
3944;DHT22;1986;52.546;13.428;2024-02-14T12:57:11;7.90;99.90
3944;DHT22;1986;52.546;13.428;2024-02-14T12:59:38;7.90;99.90
3944;DHT22;1986;52.546;13.428;2024-02-14T13:02:07;7.90;99.90
3944;DHT22;1986;52.546;13.428;2024-02-14T13:04:39;8.00;99.90
3944;DHT22;1986;52.546;13.428;2024-02-14T13:07:07;8.00;99.90
3944;DHT22;1986;52.546;13.428;2024-02-14T13:09:37;8.00;99.90
3944;DHT22;1986;52.546;13.428;2024-02-14T13:12:04;8.10;99.90
3944;DHT22;1986;52.546;13.428;2024-02-14T13:14:39;8.10;99.90
3944;DHT22;1986;52.546;13.428;2024-02-14T13:17:10;8.10;99.90
3944;DHT22;1986;52.546;13.428;2024-02-14T13:19:41;8.20;99.90
3944;DHT22;1986;52.546;13.428;2024-02-14T13:22:10;8.20;99.90
3944;DHT22;1986;52.546;13.428;2024-02-14T13:24:40;8.20;99.90
3944;DHT22;1986;52.546;13.428;2024-02-14T13:27:11;8.20;99.90
3944;DHT22;1986;52.546;13.428;2024-02-14T13:29:40;8.20;99.90
3944;DHT22;1986;52.546;13.428;2024-02-14T13:32:14;8.30;99.90
3944;DHT22;1986;52.546;13.428;2024-02-14T13:34:51;8.30;99.90
3944;DHT22;1986;52.546;13.428;2024-02-14T13:37:18;8.30;99.90
3944;DHT22;1986;52.546;13.428;2024-02-14T13:39:46;8.40;99.90
3944;DHT22;1986;52.546;13.428;2024-02-14T13:42:14;8.40;99.90
3944;DHT22;1986;52.546;13.428;2024-02-14T13:44:42;8.40;99.90
3944;DHT22;1986;52.546;13.428;2024-02-14T13:47:10;8.40;99.90
3944;DHT22;1986;52.546;13.428;2024-02-14T13:49:37;8.30;99.90
3944;DHT22;1986;52.546;13.428;2024-02-14T13:52:08;8.40;99.90
3944;DHT22;1986;52.546;13.428;2024-02-14T13:54:41;8.40;99.90
3944;DHT22;1986;52.546;13.428;2024-02-14T13:57:15;8.40;99.90
3944;DHT22;1986;52.546;13.428;2024-02-14T13:59:51;8.40;99.90
3944;DHT22;1986;52.546;13.428;2024-02-14T14:02:20;8.50;99.90
3944;DHT22;1986;52.546;13.428;2024-02-14T14:04:52;8.50;99.90
3944;DHT22;1986;52.546;13.428;2024-02-14T14:07:22;8.50;99.90
3944;DHT22;1986;52.546;13.428;2024-02-14T14:09:49;8.50;99.90
3944;DHT22;1986;52.546;13.428;2024-02-14T14:12:17;8.50;99.90
3944;DHT22;1986;52.546;13.428;2024-02-14T14:14:47;8.50;99.90
3944;DHT22;1986;52.546;13.428;2024-02-14T14:17:14;8.50;99.90
3944;DHT22;1986;52.546;13.428;2024-02-14T14:19:41;8.50;99.90
3944;DHT22;1986;52.546;13.428;2024-02-14T14:22:15;8.60;99.90
3944;DHT22;1986;52.546;13.428;2024-02-14T14:24:52;8.60;99.90
3944;DHT22;1986;52.546;13.428;2024-02-14T14:27:30;8.60;99.90
3944;DHT22;1986;52.546;13.428;2024-02-14T14:30:14;8.70;99.90
3944;DHT22;1986;52.546;13.428;2024-02-14T14:32:42;8.70;99.90
3944;DHT22;1986;52.546;13.428;2024-02-14T14:35:13;8.70;99.90
3944;DHT22;1986;52.546;13.428;2024-02-14T14:37:47;8.80;99.90
3944;DHT22;1986;52.546;13.428;2024-02-14T14:40:27;8.70;99.90
3944;DHT22;1986;52.546;13.428;2024-02-14T14:43:05;8.80;99.90
3944;DHT22;1986;52.546;13.428;2024-02-14T14:45:47;8.80;99.90
3944;DHT22;1986;52.546;13.428;2024-02-14T14:48:16;8.90;99.90
3944;DHT22;1986;52.546;13.428;2024-02-14T14:50:55;8.80;99.90
3944;DHT22;1986;52.546;13.428;2024-02-14T14:53:22;8.90;99.90
3944;DHT22;1986;52.546;13.428;2024-02-14T14:56:19;8.90;99.90
3944;DHT22;1986;52.546;13.428;2024-02-14T14:58:51;8.90;99.90
3944;DHT22;1986;52.546;13.428;2024-02-14T15:01:20;8.90;99.90
3944;DHT22;1986;52.546;13.428;2024-02-14T15:03:51;8.90;99.90
3944;DHT22;1986;52.546;13.428;2024-02-14T15:06:22;9.00;99.90
3944;DHT22;1986;52.546;13.428;2024-02-14T15:08:54;9.00;99.90
3944;DHT22;1986;52.546;13.428;2024-02-14T15:14:49;9.10;99.90
3944;DHT22;1986;52.546;13.428;2024-02-14T15:17:19;9.20;99.90
3944;DHT22;1986;52.546;13.428;2024-02-14T15:19:54;9.20;99.90
3944;DHT22;1986;52.546;13.428;2024-02-14T15:22:23;9.20;99.90
3944;DHT22;1986;52.546;13.428;2024-02-14T15:25:00;9.20;99.90
3944;DHT22;1986;52.546;13.428;2024-02-14T15:27:41;9.20;99.90
3944;DHT22;1986;52.546;13.428;2024-02-14T15:30:39;9.30;99.90
3944;DHT22;1986;52.546;13.428;2024-02-14T15:33:32;9.30;99.90
3944;DHT22;1986;52.546;13.428;2024-02-14T15:36:13;9.30;99.90
3944;DHT22;1986;52.546;13.428;2024-02-14T15:39:31;9.30;99.90
3944;DHT22;1986;52.546;13.428;2024-02-14T15:42:08;9.30;99.90
3944;DHT22;1986;52.546;13.428;2024-02-14T15:44:37;9.30;99.90
3944;DHT22;1986;52.546;13.428;2024-02-14T15:47:07;9.30;99.90
3944;DHT22;1986;52.546;13.428;2024-02-14T15:49:36;9.30;99.90
3944;DHT22;1986;52.546;13.428;2024-02-14T15:52:07;9.30;99.90
3944;DHT22;1986;52.546;13.428;2024-02-14T15:54:38;9.30;99.90
3944;DHT22;1986;52.546;13.428;2024-02-14T15:57:11;9.30;99.90
3944;DHT22;1986;52.546;13.428;2024-02-14T15:59:39;9.40;99.90
3944;DHT22;1986;52.546;13.428;2024-02-14T16:02:19;9.40;99.90
3944;DHT22;1986;52.546;13.428;2024-02-14T16:04:51;9.40;99.90
3944;DHT22;1986;52.546;13.428;2024-02-14T16:07:25;9.40;99.90
3944;DHT22;1986;52.546;13.428;2024-02-14T16:09:58;9.40;99.90
3944;DHT22;1986;52.546;13.428;2024-02-14T16:12:33;9.40;99.90
3944;DHT22;1986;52.546;13.428;2024-02-14T16:15:01;9.40;99.90
3944;DHT22;1986;52.546;13.428;2024-02-14T16:17:33;9.50;99.90
3944;DHT22;1986;52.546;13.428;2024-02-14T16:20:05;9.50;99.90
3944;DHT22;1986;52.546;13.428;2024-02-14T16:22:38;9.50;99.90
3944;DHT22;1986;52.546;13.428;2024-02-14T16:25:13;9.50;99.90
3944;DHT22;1986;52.546;13.428;2024-02-14T16:27:42;9.50;99.90
3944;DHT22;1986;52.546;13.428;2024-02-14T16:30:13;9.50;99.90
3944;DHT22;1986;52.546;13.428;2024-02-14T16:32:42;9.50;99.90
3944;DHT22;1986;52.546;13.428;2024-02-14T16:35:12;9.50;99.90
3944;DHT22;1986;52.546;13.428;2024-02-14T16:37:41;9.50;99.90
3944;DHT22;1986;52.546;13.428;2024-02-14T16:40:09;9.50;99.90
3944;DHT22;1986;52.546;13.428;2024-02-14T16:42:37;9.50;99.90
3944;DHT22;1986;52.546;13.428;2024-02-14T16:45:05;9.50;99.90
3944;DHT22;1986;52.546;13.428;2024-02-14T16:47:33;9.50;99.90